Cap Chat, Canada
Current Conditions -  °F | °C
As of 8:25 PM on Thursday 18 Dec 2014 (Local Time) from CYBC Reporting Station
Overcast Overcast  
Wind Chill: 17°   Ceiling: 7500
Heat Index: 27°   Visibility: 9mi
Dew Point: 21°   Wind: 9mph
Humidity: 80%   Direction: 360°N
Pressure: 29.76"   Gusts: NA
Location:  49.1°N, 66.68°W
Report Text: CYBC 190125Z AUTO 36008KT 9SM SCT048 OVC075 M03/M06 A2976 RMK SLP078
Loading
Personal Weather Stations






























Interactive Weather Map New forecast layout! Learn more

10-Day Weather Forecast

Advertisements
Track Severe Weather on mobile